createdAt,value
2017-10-29T00:01:01.259Z,53.90
2017-10-29T00:03:28.823Z,54.20
2017-10-29T00:05:56.457Z,55.00
2017-10-29T00:08:24.037Z,55.00
2017-10-29T00:10:51.625Z,55.20
2017-10-29T00:13:19.186Z,55.50
2017-10-29T00:15:46.756Z,55.80
2017-10-29T00:18:15.255Z,56.30
2017-10-29T00:20:43.623Z,56.70
2017-10-29T00:23:11.965Z,57.20
2017-10-29T00:25:39.527Z,57.20
2017-10-29T00:28:07.118Z,60.30
2017-10-29T00:30:34.673Z,60.80
2017-10-29T00:33:02.248Z,61.10
2017-10-29T00:35:30.589Z,62.60
2017-10-29T00:37:58.174Z,62.60
2017-10-29T00:40:26.537Z,62.60
2017-10-29T00:42:54.126Z,62.50
2017-10-29T00:45:22.484Z,61.00
2017-10-29T00:47:50.029Z,61.00
2017-10-29T00:50:17.618Z,61.10
2017-10-29T00:52:45.965Z,61.50
2017-10-29T00:55:13.546Z,61.50
2017-10-29T00:57:41.127Z,61.20
2017-10-29T01:00:09.533Z,58.80
2017-10-29T01:02:37.135Z,58.90
2017-10-29T01:05:04.717Z,58.90
2017-10-29T01:07:33.073Z,58.20
2017-10-29T01:10:00.633Z,58.20
2017-10-29T01:12:28.236Z,57.30
2017-10-29T01:14:55.790Z,56.80
2017-10-29T01:17:23.399Z,57.30
2017-10-29T01:19:50.958Z,56.20
2017-10-29T01:22:18.544Z,56.60
2017-10-29T01:24:46.129Z,56.00
2017-10-29T01:27:13.762Z,56.10
2017-10-29T01:29:41.342Z,56.80
2017-10-29T01:32:09.669Z,58.20
2017-10-29T01:34:37.262Z,58.20
2017-10-29T01:37:04.827Z,58.50
2017-10-29T01:39:32.405Z,58.40
2017-10-29T01:41:59.996Z,58.50
2017-10-29T01:44:27.590Z,58.40
2017-10-29T01:46:55.148Z,58.70
2017-10-29T01:49:22.697Z,59.70
2017-10-29T01:51:50.268Z,59.60
2017-10-29T01:54:17.831Z,60.30
2017-10-29T01:56:45.415Z,60.00
2017-10-29T01:59:13.730Z,60.60
2017-10-29T02:01:41.313Z,60.60
2017-10-29T02:04:08.859Z,61.20
2017-10-29T02:06:36.459Z,61.80
2017-10-29T02:09:04.833Z,63.00
2017-10-29T02:11:32.417Z,63.00
2017-10-29T02:13:59.979Z,63.70
2017-10-29T02:16:27.570Z,64.30
2017-10-29T02:18:55.152Z,65.40
2017-10-29T02:21:22.715Z,65.70
2017-10-29T02:23:50.342Z,66.10
2017-10-29T02:26:17.920Z,65.60
2017-10-29T02:28:45.498Z,66.00
2017-10-29T02:31:13.057Z,66.00
2017-10-29T02:33:40.679Z,66.00
2017-10-29T02:36:08.240Z,66.70
2017-10-29T02:38:35.789Z,66.80
2017-10-29T02:41:03.380Z,67.10
2017-10-29T02:43:30.966Z,67.20
2017-10-29T02:45:58.552Z,67.50
2017-10-29T02:48:26.894Z,67.50
2017-10-29T02:50:54.478Z,67.50
2017-10-29T02:53:22.062Z,67.40
2017-10-29T02:55:49.638Z,66.90
2017-10-29T02:58:17.194Z,67.20
2017-10-29T03:00:44.806Z,67.20
2017-10-29T03:03:12.381Z,67.10
2017-10-29T03:05:40.729Z,65.40
2017-10-29T03:08:08.311Z,65.50
2017-10-29T03:10:35.865Z,65.40
2017-10-29T03:13:03.452Z,65.00
2017-10-29T03:15:31.805Z,64.70
2017-10-29T03:17:59.390Z,64.70
2017-10-29T03:20:27.700Z,64.20
2017-10-29T03:22:55.297Z,64.20
2017-10-29T03:25:22.851Z,63.90
2017-10-29T03:27:50.420Z,63.40
2017-10-29T03:30:18.029Z,63.20
2017-10-29T03:32:45.576Z,63.60
2017-10-29T03:35:13.168Z,62.90
2017-10-29T03:37:40.758Z,63.10
2017-10-29T03:40:08.379Z,63.10
2017-10-29T03:42:35.967Z,63.30
2017-10-29T03:45:03.602Z,63.30
2017-10-29T03:47:31.188Z,63.20
2017-10-29T03:49:58.752Z,63.50
2017-10-29T03:52:26.330Z,63.70
2017-10-29T03:54:53.942Z,63.90
2017-10-29T03:57:21.519Z,64.60
2017-10-29T03:59:49.084Z,64.20
2017-10-29T04:02:16.661Z,63.80
2017-10-29T04:04:44.208Z,63.90
2017-10-29T04:07:11.777Z,63.90
2017-10-29T04:09:39.369Z,63.80
2017-10-29T04:12:07.688Z,63.80
2017-10-29T04:14:35.250Z,63.80
2017-10-29T04:17:02.836Z,63.80
2017-10-29T04:19:30.408Z,63.90
2017-10-29T04:21:57.979Z,64.00
2017-10-29T04:24:26.332Z,63.60
2017-10-29T04:26:53.899Z,63.50
2017-10-29T04:29:21.454Z,63.50
2017-10-29T04:31:49.052Z,63.70
2017-10-29T04:34:17.387Z,63.50
2017-10-29T04:36:44.987Z,63.50
2017-10-29T04:39:13.321Z,63.20
2017-10-29T04:41:40.883Z,63.10
2017-10-29T04:44:08.494Z,62.80
2017-10-29T04:46:36.116Z,62.90
2017-10-29T04:49:03.669Z,62.90
2017-10-29T04:51:31.234Z,62.70
2017-10-29T04:53:58.854Z,62.40
2017-10-29T04:56:26.430Z,62.20
2017-10-29T04:58:53.992Z,62.70
2017-10-29T05:01:21.572Z,63.00
2017-10-29T05:03:49.116Z,62.50
2017-10-29T05:06:16.678Z,62.50
2017-10-29T05:08:44.254Z,62.30
2017-10-29T05:11:11.848Z,62.70
2017-10-29T05:13:40.148Z,62.70
2017-10-29T05:16:07.719Z,62.70
2017-10-29T05:18:35.290Z,62.90
2017-10-29T05:21:03.695Z,62.80
2017-10-29T05:23:31.266Z,62.50
2017-10-29T05:25:59.601Z,62.70
2017-10-29T05:28:27.158Z,62.70
2017-10-29T05:30:54.741Z,62.90
2017-10-29T05:33:22.343Z,62.90
2017-10-29T05:35:49.926Z,63.20
2017-10-29T05:38:17.521Z,63.00
2017-10-29T05:40:45.130Z,62.90
2017-10-29T05:43:12.687Z,62.80
2017-10-29T05:45:40.313Z,62.90
2017-10-29T05:48:07.879Z,63.00
2017-10-29T05:50:36.244Z,62.80
2017-10-29T05:53:03.834Z,62.80
2017-10-29T05:55:32.160Z,63.00
2017-10-29T05:57:59.739Z,63.00
2017-10-29T06:00:27.350Z,63.60
2017-10-29T06:02:54.914Z,62.90
2017-10-29T06:05:22.491Z,63.10
2017-10-29T06:07:50.097Z,63.00
2017-10-29T06:10:18.433Z,63.10
2017-10-29T06:12:46.021Z,63.00
2017-10-29T06:15:13.633Z,63.00
2017-10-29T06:17:41.199Z,63.80
2017-10-29T06:20:08.782Z,63.40
2017-10-29T06:22:36.401Z,63.90
2017-10-29T06:25:03.986Z,63.90
2017-10-29T06:27:31.580Z,64.00
2017-10-29T06:29:59.169Z,64.10
2017-10-29T06:32:27.511Z,64.90
2017-10-29T06:34:55.080Z,64.80
2017-10-29T06:37:23.431Z,66.10
2017-10-29T06:39:50.981Z,65.30
2017-10-29T06:42:18.527Z,65.20
2017-10-29T06:44:46.133Z,65.40
2017-10-29T06:47:13.693Z,65.50
2017-10-29T06:49:41.251Z,65.60
2017-10-29T06:52:08.840Z,65.50
2017-10-29T06:54:37.211Z,65.60
2017-10-29T06:57:05.615Z,65.90
2017-10-29T06:59:33.231Z,66.00
2017-10-29T07:02:00.800Z,66.10
2017-10-29T07:04:28.367Z,66.20
2017-10-29T07:06:56.718Z,66.00
2017-10-29T07:09:24.285Z,66.00
2017-10-29T07:11:51.870Z,65.90
2017-10-29T07:14:20.257Z,65.80
2017-10-29T07:16:48.583Z,65.80
2017-10-29T07:19:16.475Z,65.80
2017-10-29T07:21:44.102Z,65.90
2017-10-29T07:24:11.691Z,65.80
2017-10-29T07:26:39.274Z,65.80
2017-10-29T07:29:07.636Z,65.50
2017-10-29T07:31:35.387Z,65.50
2017-10-29T07:34:02.974Z,65.70
2017-10-29T07:36:32.089Z,65.50
2017-10-29T07:38:59.646Z,65.40
2017-10-29T07:41:27.570Z,65.60
2017-10-29T07:43:55.170Z,65.40
2017-10-29T07:46:23.482Z,65.50
2017-10-29T07:48:51.044Z,65.50
2017-10-29T07:51:18.643Z,65.90
2017-10-29T07:53:46.201Z,65.70
2017-10-29T07:56:14.547Z,65.80
2017-10-29T07:58:42.135Z,65.70
2017-10-29T08:01:09.700Z,65.80
2017-10-29T08:03:37.270Z,65.70
2017-10-29T08:06:05.631Z,65.60
2017-10-29T08:08:33.196Z,65.60
2017-10-29T08:11:00.773Z,65.50
2017-10-29T08:13:29.191Z,65.30
2017-10-29T08:15:56.792Z,65.20
2017-10-29T08:18:24.351Z,65.30
2017-10-29T08:20:51.961Z,65.20
2017-10-29T08:23:19.522Z,65.20
2017-10-29T08:25:47.077Z,65.00
2017-10-29T08:28:14.678Z,65.20
2017-10-29T08:30:42.220Z,65.40
2017-10-29T08:33:09.775Z,65.60
2017-10-29T08:35:37.383Z,65.50
2017-10-29T08:38:04.933Z,65.60
2017-10-29T08:40:32.495Z,66.50
2017-10-29T08:43:00.072Z,66.10
2017-10-29T08:45:28.378Z,66.30
2017-10-29T08:47:55.931Z,66.20
2017-10-29T08:50:23.513Z,66.60
2017-10-29T08:52:51.073Z,66.50
2017-10-29T08:55:18.676Z,66.60
2017-10-29T08:57:46.263Z,66.70
2017-10-29T09:00:13.830Z,66.70
2017-10-29T09:02:41.419Z,66.80
2017-10-29T09:05:09.034Z,67.10
2017-10-29T09:07:37.871Z,67.00
2017-10-29T09:10:05.441Z,67.00
2017-10-29T09:12:33.016Z,67.40
2017-10-29T09:15:00.591Z,67.60
2017-10-29T09:17:28.910Z,68.60
2017-10-29T09:19:56.500Z,68.60
2017-10-29T09:22:24.059Z,69.00
2017-10-29T09:24:51.618Z,69.10
2017-10-29T09:27:19.214Z,68.60
2017-10-29T09:29:47.535Z,68.10
2017-10-29T09:32:15.102Z,68.00
2017-10-29T09:34:42.696Z,68.00
2017-10-29T09:37:10.250Z,67.70
2017-10-29T09:39:37.793Z,68.00
2017-10-29T09:42:05.405Z,67.50
2017-10-29T09:44:32.974Z,67.20
2017-10-29T09:47:00.554Z,67.20
2017-10-29T09:49:28.173Z,67.20
2017-10-29T09:51:56.507Z,66.90
2017-10-29T09:54:24.066Z,66.80
2017-10-29T09:56:51.677Z,66.60
2017-10-29T09:59:20.001Z,66.30
2017-10-29T10:01:47.560Z,66.40
2017-10-29T10:04:15.166Z,66.00
2017-10-29T10:06:42.771Z,66.00
2017-10-29T10:09:10.353Z,66.20
2017-10-29T10:11:37.966Z,66.20
2017-10-29T10:14:05.522Z,66.20
2017-10-29T10:16:33.073Z,66.20
2017-10-29T10:19:01.437Z,66.70
2017-10-29T10:21:29.778Z,66.70
2017-10-29T10:23:57.333Z,66.60
2017-10-29T10:26:25.701Z,66.10
2017-10-29T10:28:53.289Z,66.10
2017-10-29T10:31:20.845Z,66.20
2017-10-29T10:33:48.433Z,65.90
2017-10-29T10:36:16.762Z,65.70
2017-10-29T10:38:44.354Z,65.70
2017-10-29T10:41:11.941Z,65.30
2017-10-29T10:43:40.264Z,65.00
2017-10-29T10:46:07.822Z,65.00
2017-10-29T10:48:35.399Z,65.00
2017-10-29T10:51:02.970Z,65.10
2017-10-29T10:53:30.991Z,65.30
2017-10-29T10:55:58.566Z,65.10
2017-10-29T10:58:26.115Z,65.40
2017-10-29T11:00:53.705Z,66.00
2017-10-29T11:03:21.266Z,66.30
2017-10-29T11:05:48.827Z,67.20
2017-10-29T11:08:16.465Z,67.40
2017-10-29T11:10:44.007Z,67.40
2017-10-29T11:13:11.575Z,66.90
2017-10-29T11:15:39.165Z,68.10
2017-10-29T11:18:06.727Z,68.20
2017-10-29T11:20:34.280Z,68.20
2017-10-29T11:23:01.877Z,68.20
2017-10-29T11:25:30.305Z,67.90
2017-10-29T11:27:57.882Z,67.90
2017-10-29T11:30:25.465Z,68.10
2017-10-29T11:32:53.021Z,67.90
2017-10-29T11:35:20.614Z,68.30
2017-10-29T11:37:48.213Z,68.50
2017-10-29T11:40:15.789Z,67.90
2017-10-29T11:42:43.353Z,67.90
2017-10-29T11:45:10.923Z,66.90
2017-10-29T11:47:38.509Z,66.40
2017-10-29T11:50:06.835Z,66.70
2017-10-29T11:52:34.415Z,66.70
2017-10-29T11:55:02.064Z,67.10
2017-10-29T11:57:29.632Z,67.00
2017-10-29T11:59:57.218Z,67.20
2017-10-29T12:02:25.542Z,68.00
2017-10-29T12:04:53.130Z,67.90
2017-10-29T12:07:20.730Z,68.40
2017-10-29T12:09:48.322Z,68.60
2017-10-29T12:12:15.923Z,69.40
2017-10-29T12:14:43.530Z,69.10
2017-10-29T12:17:11.085Z,69.10
2017-10-29T12:19:38.627Z,68.60
2017-10-29T12:22:06.996Z,68.10
2017-10-29T12:24:35.331Z,68.10
2017-10-29T12:27:02.919Z,68.10
2017-10-29T12:29:31.285Z,69.60
2017-10-29T12:31:58.843Z,69.60
2017-10-29T12:34:26.439Z,71.30
2017-10-29T12:36:54.776Z,72.60
2017-10-29T12:39:22.339Z,72.60
2017-10-29T12:41:49.883Z,72.00
2017-10-29T12:44:17.476Z,72.10
2017-10-29T12:46:45.032Z,72.20
2017-10-29T12:49:12.580Z,72.30
2017-10-29T12:51:40.178Z,72.80
2017-10-29T12:54:07.741Z,72.70
2017-10-29T12:56:35.295Z,72.80
2017-10-29T12:59:02.889Z,73.20
2017-10-29T13:01:30.456Z,73.60
2017-10-29T13:03:58.043Z,74.00
2017-10-29T13:06:25.630Z,74.20
2017-10-29T13:08:53.945Z,74.60
2017-10-29T13:11:21.504Z,74.70
2017-10-29T13:13:49.081Z,74.60
2017-10-29T13:16:16.634Z,74.40
2017-10-29T13:18:44.201Z,74.30
2017-10-29T13:21:11.802Z,74.10
2017-10-29T13:23:39.369Z,74.40
2017-10-29T13:26:07.708Z,74.30
2017-10-29T13:28:35.288Z,74.30
2017-10-29T13:31:02.854Z,74.10
2017-10-29T13:33:31.174Z,74.20
2017-10-29T13:35:58.767Z,74.30
2017-10-29T13:38:26.319Z,74.30
2017-10-29T13:40:53.870Z,74.30
2017-10-29T13:43:21.462Z,74.40
2017-10-29T13:45:49.053Z,74.70
2017-10-29T13:48:16.633Z,74.50
2017-10-29T13:50:44.235Z,74.30
2017-10-29T13:53:11.813Z,74.50
2017-10-29T13:55:40.126Z,75.80
2017-10-29T13:58:07.722Z,75.80
2017-10-29T14:00:35.334Z,75.70
2017-10-29T14:03:02.896Z,75.60
2017-10-29T14:05:30.495Z,75.80
2017-10-29T14:07:58.074Z,75.70
2017-10-29T14:10:25.620Z,75.50
2017-10-29T14:12:53.214Z,76.00
2017-10-29T14:15:21.559Z,75.60
2017-10-29T14:17:49.108Z,75.60
2017-10-29T14:20:17.479Z,75.10
2017-10-29T14:22:45.051Z,75.10
2017-10-29T14:25:12.610Z,75.40
2017-10-29T14:27:40.195Z,75.30
2017-10-29T14:30:08.521Z,74.80
2017-10-29T14:32:36.071Z,74.80
2017-10-29T14:35:03.640Z,74.80
2017-10-29T14:37:31.279Z,74.80
2017-10-29T14:39:58.839Z,74.90
2017-10-29T14:42:26.407Z,75.10
2017-10-29T14:44:53.989Z,75.00
2017-10-29T14:47:21.568Z,74.80
2017-10-29T14:49:49.167Z,75.00
2017-10-29T14:52:16.753Z,75.10
2017-10-29T14:54:44.326Z,75.10
2017-10-29T14:57:11.922Z,75.10
2017-10-29T14:59:39.491Z,75.20
2017-10-29T15:02:07.818Z,75.40
2017-10-29T15:04:35.411Z,75.00
2017-10-29T15:07:02.990Z,75.00
2017-10-29T15:09:31.324Z,75.50
2017-10-29T15:11:58.917Z,75.50
2017-10-29T15:14:26.491Z,75.50
2017-10-29T15:16:54.875Z,75.80
2017-10-29T15:19:23.241Z,75.70
2017-10-29T15:21:51.588Z,75.60
2017-10-29T15:24:19.265Z,75.60
2017-10-29T15:26:46.865Z,75.50
2017-10-29T15:29:14.428Z,75.50
2017-10-29T15:31:41.989Z,75.80
2017-10-29T15:34:09.588Z,74.40
2017-10-29T15:36:37.955Z,74.00
2017-10-29T15:39:06.294Z,73.60
2017-10-29T15:41:33.917Z,73.60
2017-10-29T15:44:01.478Z,73.80
2017-10-29T15:46:29.045Z,72.70
2017-10-29T15:48:56.630Z,73.00
2017-10-29T15:51:24.974Z,72.60
2017-10-29T15:53:52.555Z,72.60
2017-10-29T15:56:20.142Z,72.50
2017-10-29T15:58:47.713Z,73.60
2017-10-29T16:01:15.280Z,73.10
2017-10-29T16:03:42.858Z,72.70
2017-10-29T16:06:10.439Z,72.50
2017-10-29T16:08:38.002Z,72.50
2017-10-29T16:11:05.607Z,72.50
2017-10-29T16:13:33.179Z,72.60
2017-10-29T16:16:00.738Z,72.70
2017-10-29T16:18:28.347Z,72.90
2017-10-29T16:20:55.931Z,73.00
2017-10-29T16:23:23.523Z,72.80
2017-10-29T16:25:51.099Z,73.00
2017-10-29T16:28:18.678Z,72.90
2017-10-29T16:30:46.243Z,73.30
2017-10-29T16:33:13.831Z,73.00
2017-10-29T16:35:42.164Z,72.50
2017-10-29T16:38:09.744Z,72.50
2017-10-29T16:40:37.374Z,72.60
2017-10-29T16:43:04.931Z,73.00
2017-10-29T16:45:32.479Z,73.10
2017-10-29T16:48:00.070Z,72.70
2017-10-29T16:50:28.230Z,72.90
2017-10-29T16:52:55.800Z,72.60
2017-10-29T16:55:23.410Z,72.60
2017-10-29T16:57:51.061Z,72.70
2017-10-29T17:00:19.387Z,72.60
2017-10-29T17:02:46.967Z,72.60
2017-10-29T17:05:14.529Z,72.60
2017-10-29T17:07:42.094Z,72.30
2017-10-29T17:10:09.686Z,72.30
2017-10-29T17:12:38.053Z,72.60
2017-10-29T17:15:06.388Z,72.50
2017-10-29T17:17:33.982Z,72.50
2017-10-29T17:20:01.533Z,72.30
2017-10-29T17:22:29.103Z,72.00
2017-10-29T17:24:57.441Z,72.10
2017-10-29T17:27:25.005Z,71.80
2017-10-29T17:29:52.554Z,72.00
2017-10-29T17:32:20.144Z,72.10
2017-10-29T17:34:47.698Z,72.10
2017-10-29T17:37:15.346Z,72.60
2017-10-29T17:39:42.928Z,73.20
2017-10-29T17:42:10.482Z,72.70
2017-10-29T17:44:38.046Z,72.50
2017-10-29T17:47:05.647Z,72.50
2017-10-29T17:49:33.237Z,72.20
2017-10-29T17:52:00.807Z,72.40
2017-10-29T17:54:28.408Z,72.10
2017-10-29T17:56:56.725Z,71.70
2017-10-29T17:59:24.276Z,71.70
2017-10-29T18:01:51.882Z,71.60
2017-10-29T18:04:19.424Z,71.30
2017-10-29T18:06:46.964Z,71.20
2017-10-29T18:09:14.542Z,71.10
2017-10-29T18:11:42.086Z,71.20
2017-10-29T18:14:09.669Z,71.00
2017-10-29T18:16:37.313Z,70.90
2017-10-29T18:19:04.878Z,70.90
2017-10-29T18:21:32.454Z,70.70
2017-10-29T18:24:00.034Z,70.60
2017-10-29T18:26:27.959Z,70.20
2017-10-29T18:28:55.551Z,70.20
2017-10-29T18:31:23.138Z,70.20
2017-10-29T18:33:55.068Z,70.10
2017-10-29T18:36:22.869Z,70.10
2017-10-29T18:38:51.203Z,69.90
2017-10-29T18:41:18.768Z,69.80
2017-10-29T18:43:46.379Z,69.80
2017-10-29T18:46:13.929Z,69.80
2017-10-29T18:48:42.264Z,69.90
2017-10-29T18:51:10.604Z,69.70
2017-10-29T18:53:38.140Z,69.70
2017-10-29T18:56:06.484Z,69.60
2017-10-29T18:58:35.148Z,69.60
2017-10-29T19:01:03.727Z,69.80
2017-10-29T19:03:31.290Z,69.90
2017-10-29T19:05:58.884Z,70.00
2017-10-29T19:08:26.448Z,70.20
2017-10-29T19:10:53.993Z,70.20
2017-10-29T19:13:21.574Z,70.30
2017-10-29T19:15:49.896Z,69.90
2017-10-29T19:18:17.439Z,69.80
2017-10-29T19:20:45.026Z,69.50
2017-10-29T19:23:12.578Z,69.60
2017-10-29T19:25:40.145Z,69.90
2017-10-29T19:28:07.710Z,69.70
2017-10-29T19:30:35.278Z,69.50
2017-10-29T19:33:03.615Z,69.80
2017-10-29T19:35:31.195Z,70.50
2017-10-29T19:37:58.739Z,69.80
2017-10-29T19:40:26.553Z,70.00
2017-10-29T19:42:54.133Z,70.00
2017-10-29T19:45:22.445Z,70.70
2017-10-29T19:47:50.622Z,70.00
2017-10-29T19:50:18.202Z,70.20
2017-10-29T19:52:45.822Z,70.10
2017-10-29T19:55:13.403Z,70.10
2017-10-29T19:57:40.989Z,69.90
2017-10-29T20:00:08.556Z,69.90
2017-10-29T20:02:36.126Z,69.90
2017-10-29T20:05:03.742Z,69.90
2017-10-29T20:07:31.303Z,69.80
2017-10-29T20:09:58.856Z,69.60
2017-10-29T20:12:26.453Z,69.40
2017-10-29T20:14:54.006Z,69.30
2017-10-29T20:17:21.563Z,69.20
2017-10-29T20:19:49.152Z,69.00
2017-10-29T20:22:17.307Z,69.00
2017-10-29T20:24:45.880Z,69.10
2017-10-29T20:27:13.457Z,68.90
2017-10-29T20:29:40.996Z,68.80
2017-10-29T20:32:08.562Z,68.70
2017-10-29T20:34:36.154Z,68.60
2017-10-29T20:37:04.469Z,68.50
2017-10-29T20:39:32.018Z,68.40
2017-10-29T20:41:59.587Z,68.50
2017-10-29T20:44:27.156Z,68.50
2017-10-29T20:46:54.707Z,68.30
2017-10-29T20:49:22.276Z,68.20
2017-10-29T20:51:49.812Z,68.30
2017-10-29T20:54:17.361Z,68.40
2017-10-29T20:56:45.709Z,67.80
2017-10-29T20:59:13.262Z,67.80
2017-10-29T21:01:40.809Z,67.50
2017-10-29T21:04:08.426Z,67.60
2017-10-29T21:06:36.022Z,67.30
2017-10-29T21:09:03.601Z,67.10
2017-10-29T21:11:31.196Z,67.10
2017-10-29T21:13:59.513Z,67.40
2017-10-29T21:16:27.080Z,67.40
2017-10-29T21:18:54.666Z,67.70
2017-10-29T21:21:22.222Z,67.70
2017-10-29T21:23:49.778Z,67.70
2017-10-29T21:26:17.351Z,68.00
2017-10-29T21:28:44.918Z,68.30
2017-10-29T21:31:13.246Z,68.30
2017-10-29T21:33:40.859Z,68.10
2017-10-29T21:36:09.194Z,68.20
2017-10-29T21:38:36.755Z,68.10
2017-10-29T21:41:04.369Z,68.10
2017-10-29T21:43:32.684Z,68.00
2017-10-29T21:46:00.237Z,68.00
2017-10-29T21:48:27.838Z,68.00
2017-10-29T21:50:55.397Z,68.20
2017-10-29T21:53:22.942Z,68.20
2017-10-29T21:55:50.535Z,68.00
2017-10-29T21:58:18.849Z,67.70
2017-10-29T22:00:46.387Z,67.70
2017-10-29T22:03:13.981Z,67.50
2017-10-29T22:05:41.546Z,67.60
2017-10-29T22:08:09.102Z,67.30
2017-10-29T22:10:36.685Z,68.00
2017-10-29T22:13:04.239Z,67.60
2017-10-29T22:15:31.793Z,68.10
2017-10-29T22:17:59.371Z,67.90
2017-10-29T22:20:26.920Z,67.90
2017-10-29T22:22:54.469Z,67.70
2017-10-29T22:25:22.054Z,68.30
2017-10-29T22:27:49.619Z,68.30
2017-10-29T22:30:17.954Z,68.50
2017-10-29T22:32:45.543Z,68.40
2017-10-29T22:35:13.093Z,68.50
2017-10-29T22:37:40.733Z,68.40
2017-10-29T22:40:08.335Z,68.70
2017-10-29T22:42:35.915Z,68.80
2017-10-29T22:45:04.253Z,68.80
2017-10-29T22:47:31.834Z,68.80
2017-10-29T22:50:00.157Z,68.90
2017-10-29T22:52:27.688Z,68.90
2017-10-29T22:54:56.066Z,68.80
2017-10-29T22:57:24.395Z,69.00
2017-10-29T22:59:51.942Z,69.00
2017-10-29T23:02:19.537Z,69.20
2017-10-29T23:04:59.001Z,69.30
2017-10-29T23:07:42.243Z,69.90
2017-10-29T23:10:09.788Z,69.90
2017-10-29T23:12:38.124Z,69.70
2017-10-29T23:15:05.714Z,69.70
2017-10-29T23:17:34.044Z,69.10
2017-10-29T23:20:01.604Z,69.10
2017-10-29T23:22:29.202Z,69.00
2017-10-29T23:24:56.748Z,69.00
2017-10-29T23:27:24.284Z,69.30
2017-10-29T23:29:51.899Z,69.60
2017-10-29T23:32:21.964Z,70.10
2017-10-29T23:34:49.519Z,70.10
2017-10-29T23:37:17.122Z,70.20
2017-10-29T23:39:44.677Z,70.00
2017-10-29T23:42:13.020Z,70.00
2017-10-29T23:44:40.613Z,69.90
2017-10-29T23:47:08.165Z,69.90
2017-10-29T23:49:35.723Z,69.80
2017-10-29T23:52:03.300Z,69.60
2017-10-29T23:54:30.849Z,69.70
2017-10-29T23:56:58.409Z,69.70
2017-10-29T23:59:26.757Z,69.90
